00:37
Airports
History
Links
Donate
Help keep this website running!
PayPal
Bitcoin
Information on this page is community maintained and may be outdated or inaccurate and is intended for reference only or PC simulator navigating.
Always use approved charts for navigating.
SBJR
Jacarepagua
Jacarepagua (SBJR)
Rio de Janeiro, Rio de Janeiro, Brazil (22775)
(C)
Lat/Lng:22° 59' 16" S / 43° 22' 13" W
-22.987778 / -43.370277
Elevation:10'ft 3mMSL
ID / ICAO:SBJR
Runways:1
Longest:(02-20) 901.2m 2,957ft Concrete
Controlled:Yes
Distance To
Airport ID:
METARUpdated 07-26-17 23:00 GMT
Altimeter: 30.24
Visibility: 6.2 statute miles
Wind: 0 knots (000°)
Temp: 18°c 64°f
Humidity: 93.9%

METAR: SBJR 262300Z 00000KT CAVOK 18/17 Q1024

(Powered by phpweather)
Runway 02 / 20
Dimensions:901.2 x 12.8m 2957' x 42'ft
Surface:Concrete
Edge Lights:Medium intensity
Runway 02 [A]Runway 20 [B]
Heading:359°TH 179°TH
Lat:
Lng:
22° 59' 30.57"S
43° 22' 12.72"W
22° 59' 1.43"S
43° 22' 13.27"W
ALS:MALSMALS
User Notes and Comments
Google Map
Nearby Airports
4 Clube Ceu 2.1 NM
SDIN WSW 251°
(C) Campo Delio Jardim de Mattos 7.8 NM
SBAF (WX) N 353°
(C) Santos-Dumont 14.2 NM
SBRJ (WX) ENE 67°
(C) Galeao Antonio Carlos Jombim 14.8 NM
SBGL (WX) NE 34°
(U) AEROCLUBE NOVA IGUACU 17.7 NM
SDNY NNW 341°
(C) SANTA CRUZ 22.5 NM
SBSC (WX) W 279°
4 Marambaia 32.8 NM
SDMR W 260°
VFR Chart
Flight Planning at SkyVector.com